Time;durP1;ratioP1;P1;durP2;ratioP2;P2;SDS_P1;SDS_P2;PMS_P1;PMS_P2;Temp;Humidity;BMP_temperature;BMP_pressure;BME280_temperature;BME280_humidity;BME280_pressure;Samples;Min_cycle;Max_cycle;Signal;HPM_P1;HPM_P2
2021/12/05 00:22:27;;;;;;;8.70;7.32;;;0.40;99.90;;;;;;7432985;19;20331;-84
2021/12/05 00:24:56;;;;;;;9.87;7.30;;;0.40;99.90;;;;;;7434999;19;20352;-85
2021/12/05 00:30:26;;;;;;;9.68;7.75;;;0.40;99.90;;;;;;7393451;19;20328;-88
2021/12/05 00:55:49;;;;;;;8.63;6.43;;;0.40;99.90;;;;;;7328016;19;2004328;-84
2021/12/05 00:59:00;;;;;;;8.02;6.28;;;0.50;99.90;;;;;;7327677;19;2004392;-89
2021/12/05 01:04:16;;;;;;;9.07;7.22;;;0.60;99.90;;;;;;7435603;19;20327;-84
2021/12/05 01:09:35;;;;;;;10.82;6.70;;;0.50;99.90;;;;;;7327202;19;2004326;-88
2021/12/05 01:21:14;;;;;;;8.95;7.18;;;0.50;99.90;;;;;;7410594;19;20325;-83
2021/12/05 01:31:52;;;;;;;6.32;5.72;;;0.60;99.90;;;;;;7420529;19;20325;-88
2021/12/05 01:45:44;;;;;;;8.52;5.53;;;0.70;99.90;;;;;;7310121;19;2004260;-87
2021/12/05 03:05:05;;;;;;;4.88;4.47;;;0.80;99.90;;;;;;7422987;19;20397;-83
2021/12/05 03:07:39;;;;;;;6.65;5.72;;;0.90;99.90;;;;;;7416945;19;20322;-83
2021/12/05 03:10:07;;;;;;;5.78;4.68;;;0.90;99.90;;;;;;7416835;19;20309;-83
2021/12/05 03:12:35;;;;;;;8.35;5.75;;;1.00;99.90;;;;;;7418284;19;20305;-82
2021/12/05 03:15:03;;;;;;;10.93;7.97;;;1.00;99.90;;;;;;7415572;19;20321;-83
2021/12/05 03:17:32;;;;;;;7.97;5.57;;;1.00;99.90;;;;;;7414442;19;20348;-85
2021/12/05 03:19:59;;;;;;;5.93;5.00;;;1.00;99.90;;;;;;7421159;19;20292;-83
2021/12/05 03:22:26;;;;;;;8.23;6.03;;;1.00;99.90;;;;;;7398483;19;20298;-83
2021/12/05 03:24:53;;;;;;;5.38;4.53;;;1.10;99.90;;;;;;7417913;19;20305;-82
2021/12/05 03:27:20;;;;;;;6.85;5.03;;;1.00;99.90;;;;;;7417275;19;20950;-82
2021/12/05 03:29:49;;;;;;;6.88;4.80;;;1.10;99.90;;;;;;7416832;19;20308;-82
2021/12/05 03:32:18;;;;;;;7.63;5.40;;;1.20;99.90;;;;;;7419348;19;20317;-83
2021/12/05 03:34:48;;;;;;;6.13;4.75;;;1.30;99.90;;;;;;7415885;19;20305;-82
2021/12/05 03:37:15;;;;;;;5.60;5.03;;;1.40;99.90;;;;;;7416436;19;20297;-83
2021/12/05 03:39:43;;;;;;;4.70;4.30;;;1.50;99.90;;;;;;7393362;19;20304;-86
2021/12/05 03:42:10;;;;;;;6.80;5.97;;;1.60;99.90;;;;;;7419856;19;20702;-83
2021/12/05 03:44:39;;;;;;;6.20;5.25;;;1.50;99.90;;;;;;7412133;19;20312;-83
2021/12/05 03:47:07;;;;;;;5.38;4.88;;;1.30;99.90;;;;;;7409996;19;20392;-83
2021/12/05 03:49:37;;;;;;;6.43;5.57;;;1.40;99.90;;;;;;7348802;19;20308;-87
2021/12/05 03:52:11;;;;;;;6.93;5.40;;;1.40;99.90;;;;;;7416346;19;20325;-87
2021/12/05 03:54:39;;;;;;;10.02;7.07;;;1.20;99.90;;;;;;7421617;19;20312;-83
2021/12/05 03:57:05;;;;;;;7.13;6.43;;;1.20;99.90;;;;;;7415289;19;21401;-82
2021/12/05 03:59:32;;;;;;;8.27;6.82;;;1.30;99.90;;;;;;7396710;19;20315;-83
2021/12/05 04:01:59;;;;;;;7.65;6.00;;;1.30;99.90;;;;;;7418577;19;20321;-83
2021/12/05 04:04:26;;;;;;;5.82;5.00;;;1.20;99.90;;;;;;7419257;19;20321;-83
2021/12/05 04:06:52;;;;;;;6.15;5.22;;;1.10;99.90;;;;;;7413829;19;20332;-83
2021/12/05 04:09:20;;;;;;;5.00;4.38;;;1.20;99.90;;;;;;7398016;19;20309;-86
2021/12/05 04:12:01;;;;;;;6.57;5.38;;;1.30;99.90;;;;;;7415015;19;20284;-83
2021/12/05 04:14:38;;;;;;;5.38;4.82;;;1.20;99.90;;;;;;7311704;19;2004249;-83
2021/12/05 04:17:08;;;;;;;5.97;5.47;;;1.20;99.90;;;;;;7412588;19;20317;-85
2021/12/05 04:19:39;;;;;;;4.95;4.50;;;1.20;99.90;;;;;;7417264;19;20332;-85
2021/12/05 04:22:08;;;;;;;5.50;5.00;;;1.10;99.90;;;;;;7397150;19;20297;-85
2021/12/05 04:24:39;;;;;;;6.88;4.78;;;1.20;99.90;;;;;;7409401;19;20308;-84
2021/12/05 04:27:08;;;;;;;5.43;4.93;;;1.30;99.90;;;;;;7315509;19;2004286;-83
2021/12/05 04:29:43;;;;;;;5.47;4.85;;;1.20;99.90;;;;;;7417011;19;20353;-88
2021/12/05 04:32:12;;;;;;;6.30;5.20;;;1.30;99.90;;;;;;7418397;19;20357;-85
2021/12/05 04:34:40;;;;;;;6.28;5.43;;;1.30;99.90;;;;;;7412236;19;20328;-87
2021/12/05 04:37:07;;;;;;;5.82;5.22;;;1.40;99.90;;;;;;7398992;19;20364;-86
2021/12/05 04:39:39;;;;;;;6.82;5.35;;;1.40;99.90;;;;;;7416219;19;20336;-88
2021/12/05 04:42:08;;;;;;;6.40;5.80;;;1.30;99.90;;;;;;7413148;19;20321;-87
2021/12/05 04:53:45;;;;;;;6.85;6.07;;;1.10;99.90;;;;;;7416076;19;20328;-90
2021/12/05 04:56:17;;;;;;;6.38;5.78;;;1.10;99.90;;;;;;7415227;19;20340;-88
2021/12/05 04:58:44;;;;;;;9.80;7.80;;;1.30;99.90;;;;;;7414956;19;20360;-89
2021/12/05 05:01:11;;;;;;;8.73;6.57;;;1.20;99.90;;;;;;7426774;19;20328;-88
2021/12/05 05:03:38;;;;;;;7.10;6.40;;;1.20;99.90;;;;;;7426350;19;20340;-90
2021/12/05 05:06:19;;;;;;;8.50;7.30;;;1.40;99.90;;;;;;7408179;19;20296;-85
2021/12/05 05:08:50;;;;;;;8.30;7.00;;;1.30;99.90;;;;;;7425493;19;20327;-89
2021/12/05 05:11:19;;;;;;;7.07;6.25;;;1.30;99.90;;;;;;7423278;19;20460;-84
2021/12/05 05:13:44;;;;;;;9.55;7.30;;;1.30;99.90;;;;;;7424855;19;20320;-84
2021/12/05 05:16:14;;;;;;;9.32;7.43;;;1.30;99.90;;;;;;7422200;19;20319;-90
2021/12/05 05:18:45;;;;;;;8.32;6.50;;;1.20;99.90;;;;;;7417351;19;20304;-90
2021/12/05 05:21:27;;;;;;;8.07;6.72;;;1.30;99.90;;;;;;7425550;19;20299;-87
2021/12/05 05:47:28;;;;;;;7.55;6.63;;;1.30;99.90;;;;;;7424194;19;20417;-87
2021/12/05 05:49:59;;;;;;;10.20;8.30;;;1.30;99.90;;;;;;7421000;19;20337;-89
2021/12/05 05:52:26;;;;;;;9.35;6.93;;;1.40;99.90;;;;;;7417698;19;20348;-87
2021/12/05 05:54:54;;;;;;;6.78;6.07;;;1.30;99.90;;;;;;7406413;19;20317;-87
2021/12/05 05:57:29;;;;;;;9.07;7.22;;;1.20;99.90;;;;;;7424849;19;20321;-90
2021/12/05 06:00:12;;;;;;;8.60;7.70;;;1.20;99.90;;;;;;7403267;19;20325;-89
2021/12/05 06:05:30;;;;;;;8.35;7.47;;;1.10;99.90;;;;;;7314610;19;2004244;-89
2021/12/05 06:07:56;;;;;;;7.97;7.18;;;1.30;99.90;;;;;;7423507;19;20309;-90
2021/12/05 06:10:26;;;;;;;9.25;6.95;;;1.30;99.90;;;;;;7422485;19;20386;-90
2021/12/05 06:12:52;;;;;;;8.95;8.05;;;1.30;99.90;;;;;;7423635;19;20402;-88
2021/12/05 06:15:19;;;;;;;8.57;7.25;;;1.40;99.90;;;;;;7421355;19;20322;-89
2021/12/05 06:17:45;;;;;;;10.07;7.53;;;1.40;99.90;;;;;;7376488;19;20374;-87
2021/12/05 06:20:12;;;;;;;8.02;7.07;;;1.40;99.90;;;;;;7425283;19;20316;-86
2021/12/05 06:22:38;;;;;;;7.40;6.67;;;1.40;99.90;;;;;;7423849;19;20296;-85
2021/12/05 06:25:06;;;;;;;7.80;7.00;;;1.40;99.90;;;;;;7424120;19;20388;-90
2021/12/05 06:27:32;;;;;;;10.37;7.63;;;1.40;99.90;;;;;;7422382;19;20334;-89
2021/12/05 06:30:09;;;;;;;8.83;7.07;;;1.50;99.90;;;;;;7423927;19;20321;-89
2021/12/05 06:49:46;;;;;;;7.68;6.97;;;1.50;99.90;;;;;;7323887;19;20333;-89
2021/12/05 06:52:13;;;;;;;6.45;5.70;;;1.50;99.90;;;;;;7400717;19;20320;-88
2021/12/05 06:54:39;;;;;;;8.35;7.38;;;1.50;99.90;;;;;;7424164;19;20435;-89
2021/12/05 06:57:07;;;;;;;6.75;5.70;;;1.40;99.90;;;;;;7419711;19;20333;-85
2021/12/05 06:59:37;;;;;;;7.90;5.95;;;1.40;99.90;;;;;;7415317;19;20748;-87
2021/12/05 07:02:03;;;;;;;7.90;6.73;;;1.40;99.90;;;;;;7422634;19;20301;-87
2021/12/05 07:06:59;;;;;;;7.55;6.82;;;1.50;99.90;;;;;;7417197;19;20476;-89
2021/12/05 07:09:26;;;;;;;7.65;6.75;;;1.40;99.90;;;;;;7401562;19;20319;-91
2021/12/05 07:44:58;;;;;;;8.48;7.55;;;1.50;99.90;;;;;;7152352;19;2004515;-79
2021/12/05 07:48:31;;;;;;;12.13;9.60;;;1.50;99.90;;;;;;7365228;19;20328;-78
2021/12/05 07:51:41;;;;;;;10.38;8.68;;;1.50;99.90;;;;;;7193668;19;2004504;-79
2021/12/05 09:28:07;;;;;;;13.00;10.45;;;1.90;99.90;;;;;;7282649;19;2004550;-80
2021/12/05 10:08:56;;;;;;;10.90;8.67;;;1.90;99.90;;;;;;7301394;19;2004245;-84
2021/12/05 10:11:41;;;;;;;11.65;9.85;;;1.90;99.90;;;;;;7320345;19;2004203;-87
2021/12/05 10:17:34;;;;;;;9.70;8.70;;;2.00;99.90;;;;;;7296267;19;2004464;-82
2021/12/05 10:34:40;;;;;;;12.55;8.95;;;1.80;99.90;;;;;;7215236;19;2007060;-85
2021/12/05 10:37:25;;;;;;;10.02;8.65;;;1.90;99.90;;;;;;7311258;19;2007588;-86
2021/12/05 10:40:05;;;;;;;11.07;9.05;;;2.00;99.90;;;;;;7417865;19;20296;-89
2021/12/05 11:02:30;;;;;;;10.00;8.27;;;2.30;99.90;;;;;;7345458;19;20341;-79
2021/12/05 12:17:14;;;;;;;8.68;6.00;;;2.20;99.90;;;;;;7408052;19;20425;-80
2021/12/05 12:53:26;;;;;;;8.27;7.25;;;2.40;99.90;;;;;;7279841;19;20671;31
2021/12/05 12:55:55;;;;;;;10.20;6.95;;;2.20;99.90;;;;;;7367476;19;20346;-78
2021/12/05 12:58:51;;;;;;;8.55;7.30;;;2.10;99.90;;;;;;7392470;19;20332;-82
2021/12/05 13:02:14;;;;;;;7.35;6.25;;;2.10;99.90;;;;;;7309756;19;2004310;-78
2021/12/05 13:10:40;;;;;;;7.93;6.50;;;2.30;99.90;;;;;;7312432;19;2004607;-78
2021/12/05 13:13:22;;;;;;;6.35;5.43;;;2.50;99.90;;;;;;7413856;19;20348;-79
2021/12/05 13:15:53;;;;;;;5.72;4.43;;;2.20;99.90;;;;;;7316524;19;2004322;-78
2021/12/05 13:18:33;;;;;;;7.00;6.30;;;2.50;99.90;;;;;;7411723;19;20329;-79
2021/12/05 14:06:03;;;;;;;8.38;6.85;;;2.40;99.90;;;;;;7292069;19;20365;-79
2021/12/05 14:09:44;;;;;;;8.75;7.13;;;2.30;99.90;;;;;;7273420;19;2004746;-79
2021/12/05 15:16:01;;;;;;;10.55;9.40;;;1.80;99.90;;;;;;7388887;19;20281;-80
2021/12/05 15:18:55;;;;;;;16.48;10.45;;;1.80;99.90;;;;;;7360901;19;20312;-81
2021/12/05 15:21:21;;;;;;;14.10;10.70;;;1.70;99.90;;;;;;7362438;19;20317;-84
2021/12/05 15:23:47;;;;;;;19.60;10.52;;;1.70;99.90;;;;;;7395488;19;20360;-81
2021/12/05 15:26:14;;;;;;;21.87;12.03;;;1.70;99.90;;;;;;7398119;19;20305;-81
2021/12/05 15:28:40;;;;;;;12.38;9.75;;;1.60;99.90;;;;;;7401957;19;20341;-81
2021/12/05 15:31:06;;;;;;;23.02;13.93;;;1.60;99.90;;;;;;7387919;19;20350;-82
2021/12/05 15:33:33;;;;;;;17.48;12.80;;;1.50;99.90;;;;;;7384515;19;21253;-83
2021/12/05 15:36:00;;;;;;;17.80;12.70;;;1.50;99.90;;;;;;7346260;19;20316;-83
2021/12/05 15:38:27;;;;;;;17.07;11.70;;;1.50;99.90;;;;;;7384949;19;20420;-83
2021/12/05 15:40:59;;;;;;;20.73;12.40;;;1.50;99.90;;;;;;7382349;19;21174;-81
2021/12/05 15:43:26;;;;;;;16.63;12.43;;;1.60;99.90;;;;;;7385264;19;21112;-81
2021/12/05 15:45:54;;;;;;;17.20;11.90;;;1.50;99.90;;;;;;7368133;19;20435;-82
2021/12/05 15:48:56;;;;;;;14.93;11.30;;;1.50;99.90;;;;;;7358835;19;20359;-82
2021/12/05 16:01:21;;;;;;;14.40;10.30;;;1.60;99.90;;;;;;7400248;19;20357;-81
2021/12/05 16:03:54;;;;;;;15.97;10.30;;;1.60;99.90;;;;;;7283208;19;2008788;-81
2021/12/05 16:06:20;;;;;;;17.23;13.38;;;1.70;99.90;;;;;;7386616;19;20319;-81
2021/12/05 16:08:54;;;;;;;20.17;13.38;;;1.70;99.90;;;;;;7385587;19;20892;-82
2021/12/05 16:11:20;;;;;;;14.52;11.73;;;1.70;99.90;;;;;;7365143;19;20324;-81
2021/12/05 16:13:49;;;;;;;15.10;11.98;;;1.80;99.90;;;;;;7361572;19;20402;-82
2021/12/05 16:16:17;;;;;;;20.67;13.68;;;1.70;99.90;;;;;;7387010;19;20349;-81
2021/12/05 16:18:48;;;;;;;21.15;12.98;;;1.60;99.90;;;;;;7383950;19;20339;-81
2021/12/05 16:21:30;;;;;;;16.10;10.07;;;1.50;99.90;;;;;;7386324;19;20459;-81
2021/12/05 16:24:17;;;;;;;13.85;9.63;;;1.50;99.90;;;;;;7387366;19;20363;-81
2021/12/05 16:26:44;;;;;;;11.90;9.02;;;1.50;99.90;;;;;;7387775;19;20329;-81
2021/12/05 16:30:08;;;;;;;15.02;11.43;;;1.40;99.90;;;;;;7396627;19;20356;-80
2021/12/05 16:33:20;;;;;;;9.93;8.43;;;1.50;99.90;;;;;;7293841;19;2004432;-82
2021/12/05 18:41:21;;;;;;;28.00;16.73;;;1.40;99.90;;;;;;7398479;19;20340;-80
